createdAt,value
2018-12-11T00:01:06.749Z,100122.42
2018-12-11T00:03:38.479Z,100109.72
2018-12-11T00:06:11.522Z,100109.04
2018-12-11T00:09:01.441Z,100125.55
2018-12-11T00:11:34.111Z,100098.84
2018-12-11T00:14:06.313Z,100118.22
2018-12-11T00:16:38.627Z,100128.84
2018-12-11T00:19:10.658Z,100127.99
2018-12-11T00:21:42.969Z,100130.92
2018-12-11T00:24:15.193Z,100127.39
2018-12-11T00:26:47.384Z,100137.48
2018-12-11T00:29:19.533Z,100128.25
2018-12-11T00:31:51.864Z,100141.14
2018-12-11T00:34:24.434Z,100140.69
2018-12-11T00:36:58.935Z,100130.44
2018-12-11T00:39:30.636Z,100129.70
2018-12-11T00:42:03.004Z,100137.20
2018-12-11T00:44:35.065Z,100118.64
2018-12-11T00:47:07.285Z,100127.39
2018-12-11T00:49:39.400Z,100121.31
2018-12-11T00:52:09.701Z,100124.23
2018-12-11T00:54:46.227Z,100122.90
2018-12-11T00:57:18.951Z,100129.12
2018-12-11T00:59:50.850Z,100127.55
2018-12-11T01:02:23.349Z,100121.19
2018-12-11T01:04:55.589Z,100128.85
2018-12-11T01:07:27.824Z,100128.22
2018-12-11T01:09:59.953Z,100126.73
2018-12-11T01:12:32.103Z,100129.03
2018-12-11T01:15:07.079Z,100124.25
2018-12-11T01:17:39.584Z,100119.34
2018-12-11T01:20:13.950Z,100118.67
2018-12-11T01:22:45.675Z,100130.16
2018-12-11T01:25:30.240Z,100127.86
2018-12-11T01:28:02.104Z,100126.73
2018-12-11T01:30:34.199Z,100136.42
2018-12-11T01:33:06.577Z,100132.81
2018-12-11T01:35:38.384Z,100129.89
2018-12-11T01:38:12.786Z,100126.95
2018-12-11T01:40:44.527Z,100128.75
2018-12-11T01:43:16.709Z,100131.91
2018-12-11T01:45:48.720Z,100129.30
2018-12-11T01:48:20.855Z,100134.52
2018-12-11T01:53:21.740Z,100119.83
2018-12-11T01:55:53.784Z,100121.91
2018-12-11T01:58:26.135Z,100126.19
2018-12-11T02:00:58.652Z,100135.94
2018-12-11T02:03:32.048Z,100131.52
2018-12-11T02:06:03.965Z,100139.19
2018-12-11T02:08:36.034Z,100143.28
2018-12-11T02:11:08.498Z,100150.05
2018-12-11T02:13:41.066Z,100134.36
2018-12-11T02:16:13.040Z,100126.88
2018-12-11T02:18:45.103Z,100138.78
2018-12-11T02:21:17.233Z,100134.22
2018-12-11T02:23:47.460Z,100090.11
2018-12-11T02:26:19.803Z,100120.20
2018-12-11T02:28:54.304Z,100125.43
2018-12-11T02:31:26.129Z,100110.28
2018-12-11T02:33:56.499Z,100128.98
2018-12-11T02:36:26.895Z,100110.31
2018-12-11T02:38:59.393Z,100130.34
2018-12-11T02:45:13.176Z,100123.25
2018-12-11T02:47:43.327Z,100115.55
2018-12-11T02:50:15.675Z,100122.48
2018-12-11T02:52:48.019Z,100115.55
2018-12-11T02:55:21.780Z,100116.71
2018-12-11T02:57:53.954Z,100128.09
2018-12-11T03:00:26.416Z,100140.27
2018-12-11T03:02:58.632Z,100143.91
2018-12-11T03:05:28.821Z,100133.91
2018-12-11T03:08:01.120Z,100127.45
2018-12-11T03:10:33.317Z,100110.08
2018-12-11T03:13:05.806Z,100133.72
2018-12-11T03:15:37.798Z,100131.69
2018-12-11T03:18:08.242Z,100129.07
2018-12-11T03:20:41.603Z,100146.71
2018-12-11T03:23:13.659Z,100139.86
2018-12-11T03:25:44.053Z,100139.68
2018-12-11T03:28:16.334Z,100149.78
2018-12-11T03:30:48.452Z,100147.97
2018-12-11T03:33:20.699Z,100145.90
2018-12-11T03:35:52.704Z,100144.23
2018-12-11T03:38:24.747Z,100140.12
2018-12-11T03:40:57.492Z,100132.85
2018-12-11T03:43:31.440Z,100143.31
2018-12-11T03:46:03.259Z,100158.84
2018-12-11T03:48:35.430Z,100145.75
2018-12-11T03:51:08.044Z,100138.54
2018-12-11T03:53:38.070Z,100146.88
2018-12-11T03:56:12.595Z,100149.05
2018-12-11T04:01:38.100Z,100146.09
2018-12-11T04:04:09.832Z,100149.75
2018-12-11T04:06:42.342Z,100156.39
2018-12-11T04:09:14.181Z,100157.81
2018-12-11T04:11:46.592Z,100160.62
2018-12-11T04:14:19.533Z,100163.05
2018-12-11T04:16:51.605Z,100160.25
2018-12-11T04:19:25.652Z,100143.27
2018-12-11T04:21:57.346Z,100160.89
2018-12-11T04:24:29.975Z,100166.34
2018-12-11T04:27:01.675Z,100165.42
2018-12-11T04:29:34.121Z,100165.78
2018-12-11T04:32:06.288Z,100156.37
2018-12-11T04:34:38.576Z,100166.66
2018-12-11T04:37:10.683Z,100149.65
2018-12-11T04:39:41.732Z,100160.98
2018-12-11T04:42:14.923Z,100167.80
2018-12-11T04:44:49.923Z,100145.92
2018-12-11T04:47:22.633Z,100144.31
2018-12-11T04:49:56.170Z,100153.69
2018-12-11T04:52:29.576Z,100156.13
2018-12-11T04:55:02.488Z,100144.14
2018-12-11T04:57:34.812Z,100127.11
2018-12-11T05:00:09.079Z,100149.94
2018-12-11T05:02:41.335Z,100133.50
2018-12-11T05:05:15.611Z,100131.61
2018-12-11T05:07:48.129Z,100138.00
2018-12-11T05:10:19.868Z,100162.15
2018-12-11T05:12:52.703Z,100173.52
2018-12-11T05:18:14.999Z,100167.78
2018-12-11T05:20:46.884Z,100175.76
2018-12-11T05:23:19.412Z,100162.08
2018-12-11T05:25:51.808Z,100181.72
2018-12-11T05:28:24.183Z,100171.05
2018-12-11T05:30:58.026Z,100174.45
2018-12-11T05:33:30.480Z,100174.42
2018-12-11T05:36:03.614Z,100165.05
2018-12-11T05:38:35.669Z,100186.92
2018-12-11T05:41:07.425Z,100182.76
2018-12-11T05:43:40.005Z,100167.14
2018-12-11T05:46:14.475Z,100192.98
2018-12-11T05:48:46.114Z,100180.75
2018-12-11T05:51:18.376Z,100189.30
2018-12-11T05:53:50.908Z,100171.67
2018-12-11T05:56:22.886Z,100181.97
2018-12-11T05:58:55.837Z,100190.55
2018-12-11T06:01:27.443Z,100184.00
2018-12-11T06:03:59.338Z,100195.56
2018-12-11T06:06:31.705Z,100194.98
2018-12-11T06:09:04.965Z,100194.17
2018-12-11T06:11:36.943Z,100197.10
2018-12-11T06:14:08.943Z,100191.83
2018-12-11T06:16:42.126Z,100189.84
2018-12-11T06:19:12.275Z,100202.97
2018-12-11T06:21:44.728Z,100194.98
2018-12-11T06:24:19.017Z,100183.39
2018-12-11T06:26:50.788Z,100188.53
2018-12-11T06:29:25.378Z,100194.62
2018-12-11T06:31:58.139Z,100194.81
2018-12-11T06:34:28.401Z,100201.98
2018-12-11T06:37:00.690Z,100200.89
2018-12-11T06:39:33.178Z,100193.41
2018-12-11T06:42:05.167Z,100210.09
2018-12-11T06:44:37.206Z,100205.59
2018-12-11T06:47:09.534Z,100199.59
2018-12-11T06:49:41.459Z,100218.50
2018-12-11T06:52:13.626Z,100215.16
2018-12-11T06:54:45.639Z,100202.79
2018-12-11T06:57:18.067Z,100226.89
2018-12-11T06:59:49.994Z,100228.88
2018-12-11T07:02:22.805Z,100214.57
2018-12-11T07:04:53.338Z,100206.54
2018-12-11T07:07:25.608Z,100209.74
2018-12-11T07:09:57.683Z,100228.61
2018-12-11T07:12:29.790Z,100237.31
2018-12-11T07:15:03.668Z,100230.77
2018-12-11T07:17:37.264Z,100227.16
2018-12-11T07:20:09.376Z,100232.48
2018-12-11T07:22:39.600Z,100212.54
2018-12-11T07:25:11.667Z,100237.19
2018-12-11T07:27:44.508Z,100234.11
2018-12-11T07:30:17.421Z,100240.61
2018-12-11T07:32:49.460Z,100244.17
2018-12-11T07:35:19.817Z,100227.94
2018-12-11T07:37:52.250Z,100226.89
2018-12-11T07:40:24.317Z,100245.89
2018-12-11T07:42:56.704Z,100237.19
2018-12-11T07:45:28.428Z,100239.30
2018-12-11T07:47:58.868Z,100254.42
2018-12-11T07:50:30.887Z,100237.36
2018-12-11T07:53:06.464Z,100250.45
2018-12-11T07:55:37.899Z,100260.06
2018-12-11T07:58:10.429Z,100251.89
2018-12-11T08:00:42.725Z,100245.80
2018-12-11T08:03:15.524Z,100254.11
2018-12-11T08:05:49.669Z,100254.33
2018-12-11T08:08:21.599Z,100258.03
2018-12-11T08:10:55.884Z,100260.42
2018-12-11T08:13:28.259Z,100251.30
2018-12-11T08:16:00.906Z,100262.95
2018-12-11T08:18:33.110Z,100250.63
2018-12-11T08:21:04.747Z,100253.70
2018-12-11T08:23:37.649Z,100265.16
2018-12-11T08:26:10.179Z,100273.78
2018-12-11T08:28:44.566Z,100264.31
2018-12-11T08:31:18.367Z,100274.51
2018-12-11T08:33:50.363Z,100285.83
2018-12-11T08:36:22.356Z,100279.83
2018-12-11T08:38:54.295Z,100267.87
2018-12-11T08:41:26.664Z,100279.88
2018-12-11T08:44:01.004Z,100280.78
2018-12-11T08:46:35.466Z,100265.30
2018-12-11T08:49:09.252Z,100282.72
2018-12-11T08:51:43.507Z,100262.73
2018-12-11T08:54:15.207Z,100299.23
2018-12-11T08:56:47.523Z,100285.11
2018-12-11T08:59:19.654Z,100293.96
2018-12-11T09:01:54.443Z,100298.52
2018-12-11T09:04:26.224Z,100297.20
2018-12-11T09:06:58.349Z,100298.20
2018-12-11T09:09:30.503Z,100302.13
2018-12-11T09:12:02.860Z,100309.81
2018-12-11T09:14:35.029Z,100312.48
2018-12-11T09:17:10.233Z,100303.31
2018-12-11T09:19:42.133Z,100309.41
2018-12-11T09:22:14.184Z,100316.67
2018-12-11T09:24:46.444Z,100322.81
2018-12-11T09:27:18.584Z,100324.52
2018-12-11T09:29:50.163Z,100325.29
2018-12-11T09:32:22.607Z,100323.44
2018-12-11T09:34:54.363Z,100300.61
2018-12-11T09:37:26.372Z,100328.64
2018-12-11T09:39:59.430Z,100310.12
2018-12-11T09:42:33.043Z,100306.97
2018-12-11T09:45:08.265Z,100311.27
2018-12-11T09:47:40.270Z,100305.30
2018-12-11T09:50:12.355Z,100299.70
2018-12-11T09:52:46.576Z,100294.73
2018-12-11T09:55:19.117Z,100304.58
2018-12-11T09:57:51.175Z,100298.07
2018-12-11T10:00:27.197Z,100306.92
2018-12-11T10:02:57.614Z,100308.48
2018-12-11T10:05:30.737Z,100307.72
2018-12-11T10:08:03.900Z,100317.08
2018-12-11T10:10:35.560Z,100315.22
2018-12-11T10:13:07.474Z,100302.11
2018-12-11T10:15:41.145Z,100316.92
2018-12-11T10:18:13.303Z,100306.59
2018-12-11T10:20:45.560Z,100281.79
2018-12-11T10:23:20.313Z,100312.99
2018-12-11T10:25:52.065Z,100318.45
2018-12-11T10:28:22.618Z,100321.07
2018-12-11T10:30:54.996Z,100327.31
2018-12-11T10:33:27.475Z,100320.45
2018-12-11T10:35:57.752Z,100322.84
2018-12-11T10:38:29.913Z,100324.84
2018-12-11T10:41:02.455Z,100325.70
2018-12-11T10:43:34.521Z,100317.59
2018-12-11T10:46:07.223Z,100318.42
2018-12-11T10:48:39.215Z,100318.05
2018-12-11T10:51:11.404Z,100313.27
2018-12-11T10:53:45.924Z,100309.27
2018-12-11T10:56:18.511Z,100334.72
2018-12-11T10:58:51.311Z,100325.41
2018-12-11T11:01:27.691Z,100326.56
2018-12-11T11:03:59.683Z,100308.42
2018-12-11T11:06:31.681Z,100315.95
2018-12-11T11:09:05.645Z,100322.88
2018-12-11T11:11:38.045Z,100337.41
2018-12-11T11:14:10.521Z,100326.53
2018-12-11T11:16:43.951Z,100328.39
2018-12-11T11:19:18.305Z,100341.16
2018-12-11T11:21:49.879Z,100321.87
2018-12-11T11:24:24.249Z,100343.17
2018-12-11T11:26:56.584Z,100347.77
2018-12-11T11:29:28.913Z,100353.14
2018-12-11T11:32:01.625Z,100354.72
2018-12-11T11:34:38.549Z,100344.33
2018-12-11T11:37:10.576Z,100355.36
2018-12-11T11:42:37.125Z,100361.19
2018-12-11T11:45:10.492Z,100360.97
2018-12-11T11:47:43.556Z,100365.27
2018-12-11T11:50:18.324Z,100369.47
2018-12-11T11:52:50.310Z,100366.58
2018-12-11T11:55:22.324Z,100375.56
2018-12-11T11:57:54.901Z,100368.07
2018-12-11T12:00:28.019Z,100374.22
2018-12-11T12:03:00.336Z,100373.04
2018-12-11T12:10:36.193Z,100387.63
2018-12-11T12:13:08.723Z,100390.21
2018-12-11T12:15:40.836Z,100391.71
2018-12-11T12:18:13.567Z,100390.80
2018-12-11T12:20:45.276Z,100391.08
2018-12-11T12:23:16.839Z,100395.45
2018-12-11T12:25:49.259Z,100402.72
2018-12-11T12:28:21.421Z,100392.73
2018-12-11T12:30:54.921Z,100397.29
2018-12-11T12:33:27.261Z,100387.49
2018-12-11T12:35:57.269Z,100392.47
2018-12-11T12:38:36.880Z,100394.28
2018-12-11T12:41:18.768Z,100398.44
2018-12-11T12:43:52.250Z,100393.83
2018-12-11T12:46:22.385Z,100399.25
2018-12-11T12:48:54.512Z,100409.55
2018-12-11T12:51:26.809Z,100384.88
2018-12-11T12:53:59.647Z,100406.94
2018-12-11T12:59:25.252Z,100411.67
2018-12-11T13:01:57.522Z,100395.86
2018-12-11T13:04:29.850Z,100409.77
2018-12-11T13:07:02.264Z,100420.94
2018-12-11T13:12:05.353Z,100425.28
2018-12-11T13:14:37.563Z,100417.55
2018-12-11T13:17:11.796Z,100413.70
2018-12-11T13:19:43.848Z,100424.78
2018-12-11T13:22:16.100Z,100423.93
2018-12-11T13:24:48.401Z,100430.34
2018-12-11T13:27:20.629Z,100431.34
2018-12-11T13:29:53.235Z,100434.90
2018-12-11T13:32:24.987Z,100436.84
2018-12-11T13:34:57.509Z,100434.32
2018-12-11T13:37:29.967Z,100421.03
2018-12-11T13:40:04.550Z,100446.42
2018-12-11T13:42:37.075Z,100440.81
2018-12-11T13:45:09.885Z,100440.95
2018-12-11T13:47:44.295Z,100443.97
2018-12-11T13:50:16.927Z,100422.96
2018-12-11T13:52:49.013Z,100452.33
2018-12-11T13:55:21.677Z,100455.85
2018-12-11T13:57:53.711Z,100449.70
2018-12-11T14:00:25.975Z,100440.53
2018-12-11T14:02:58.211Z,100447.99
2018-12-11T14:05:30.453Z,100447.71
2018-12-11T14:08:02.574Z,100462.66
2018-12-11T14:10:34.830Z,100464.59
2018-12-11T14:16:01.401Z,100463.48
2018-12-11T14:18:37.385Z,100463.94
2018-12-11T14:21:07.717Z,100461.15
2018-12-11T14:23:44.640Z,100464.88
2018-12-11T14:26:16.300Z,100466.39
2018-12-11T14:28:48.696Z,100472.80
2018-12-11T14:31:26.719Z,100469.69
2018-12-11T14:33:59.033Z,100474.02
2018-12-11T14:36:31.136Z,100467.92
2018-12-11T14:39:04.738Z,100464.77
2018-12-11T14:41:36.605Z,100480.48
2018-12-11T14:44:08.978Z,100472.08
2018-12-11T14:46:41.318Z,100472.62
2018-12-11T14:49:13.232Z,100475.42
2018-12-11T14:51:45.461Z,100472.39
2018-12-11T14:54:17.633Z,100473.25
2018-12-11T14:56:49.905Z,100467.16
2018-12-11T14:59:22.333Z,100472.80
2018-12-11T15:01:52.632Z,100476.73
2018-12-11T15:04:25.138Z,100485.22
2018-12-11T15:06:57.541Z,100473.34
2018-12-11T15:09:34.813Z,100480.12
2018-12-11T15:17:10.988Z,100472.99
2018-12-11T15:19:42.956Z,100475.78
2018-12-11T15:22:13.087Z,100480.48
2018-12-11T15:24:45.117Z,100485.50
2018-12-11T15:27:17.396Z,100484.47
2018-12-11T15:29:47.335Z,100488.17
2018-12-11T15:32:19.786Z,100484.19
2018-12-11T15:34:51.894Z,100490.73
2018-12-11T15:37:24.179Z,100494.05
2018-12-11T15:39:56.481Z,100480.48
2018-12-11T15:42:26.621Z,100491.23
2018-12-11T15:44:57.538Z,100489.83
2018-12-11T15:47:29.513Z,100492.99
2018-12-11T15:50:01.658Z,100494.67
2018-12-11T15:52:34.092Z,100489.97
2018-12-11T15:55:06.475Z,100495.61
2018-12-11T15:57:38.525Z,100500.45
2018-12-11T16:00:11.844Z,100497.63
2018-12-11T16:02:44.310Z,100504.47
2018-12-11T16:05:16.332Z,100498.09
2018-12-11T16:07:48.369Z,100504.72
2018-12-11T16:10:22.920Z,100512.50
2018-12-11T16:12:54.688Z,100524.97
2018-12-11T16:15:26.627Z,100529.57
2018-12-11T16:18:00.981Z,100530.95
2018-12-11T16:20:32.661Z,100530.73
2018-12-11T16:23:07.225Z,100524.85
2018-12-11T16:25:38.912Z,100534.16
2018-12-11T16:28:11.017Z,100525.69
2018-12-11T16:30:41.534Z,100528.68
2018-12-11T16:33:13.864Z,100536.94
2018-12-11T16:35:45.905Z,100539.55
2018-12-11T16:38:18.203Z,100538.24
2018-12-11T16:40:50.412Z,100542.87
2018-12-11T16:43:23.076Z,100537.93
2018-12-11T16:45:55.036Z,100518.96
2018-12-11T16:48:27.275Z,100538.95
2018-12-11T16:50:59.582Z,100540.35
2018-12-11T16:53:32.049Z,100545.79
2018-12-11T16:56:04.274Z,100550.20
2018-12-11T16:58:36.108Z,100543.66
2018-12-11T17:01:10.535Z,100552.19
2018-12-11T17:03:42.361Z,100561.72
2018-12-11T17:06:15.109Z,100556.33
2018-12-11T17:08:47.302Z,100555.44
2018-12-11T17:11:18.847Z,100553.34
2018-12-11T17:13:53.006Z,100568.52
2018-12-11T17:16:27.797Z,100564.11
2018-12-11T17:18:59.940Z,100561.81
2018-12-11T17:21:31.776Z,100565.74
2018-12-11T17:24:04.181Z,100572.59
2018-12-11T17:26:38.749Z,100574.63
2018-12-11T17:29:10.723Z,100574.70
2018-12-11T17:31:42.471Z,100579.69
2018-12-11T17:34:14.423Z,100578.79
2018-12-11T17:36:46.501Z,100589.25
2018-12-11T17:39:18.696Z,100577.07
2018-12-11T17:41:51.137Z,100568.32
2018-12-11T17:44:25.396Z,100574.86
2018-12-11T17:46:57.031Z,100581.66
2018-12-11T17:49:29.743Z,100580.04
2018-12-11T17:52:01.313Z,100578.98
2018-12-11T17:54:31.719Z,100587.45
2018-12-11T17:57:04.203Z,100588.76
2018-12-11T17:59:36.193Z,100578.67
2018-12-11T18:02:10.324Z,100583.82
2018-12-11T18:04:40.607Z,100582.06
2018-12-11T18:07:15.023Z,100588.68
2018-12-11T18:09:46.819Z,100601.44
2018-12-11T18:12:17.319Z,100594.52
2018-12-11T18:14:51.624Z,100597.14
2018-12-11T18:17:26.185Z,100596.91
2018-12-11T18:19:59.805Z,100601.31
2018-12-11T18:22:32.436Z,100601.16
2018-12-11T18:25:05.403Z,100607.33
2018-12-11T18:30:10.111Z,100595.77
2018-12-11T18:32:42.374Z,100623.41
2018-12-11T18:35:18.322Z,100626.86
2018-12-11T18:37:51.926Z,100624.92
2018-12-11T18:40:24.428Z,100626.55
2018-12-11T18:42:56.676Z,100633.50
2018-12-11T18:45:28.778Z,100629.47
2018-12-11T18:48:00.661Z,100634.44
2018-12-11T18:50:31.013Z,100636.69
2018-12-11T18:53:03.003Z,100643.37
2018-12-11T18:55:35.359Z,100632.50
2018-12-11T18:58:07.546Z,100629.52
2018-12-11T19:00:39.845Z,100643.67
2018-12-11T19:03:12.264Z,100636.42
2018-12-11T19:05:44.297Z,100640.87
2018-12-11T19:08:18.403Z,100633.73
2018-12-11T19:10:50.984Z,100631.38
2018-12-11T19:13:23.701Z,100637.99
2018-12-11T19:15:56.092Z,100628.24
2018-12-11T19:18:28.197Z,100646.99
2018-12-11T19:21:10.858Z,100637.09
2018-12-11T19:23:59.878Z,100644.94
2018-12-11T19:26:31.784Z,100645.27
2018-12-11T19:29:03.727Z,100650.05
2018-12-11T19:31:38.094Z,100648.14
2018-12-11T19:34:09.823Z,100643.70
2018-12-11T19:36:42.622Z,100646.98
2018-12-11T19:39:14.939Z,100646.17
2018-12-11T19:41:47.531Z,100642.77
2018-12-11T19:44:21.558Z,100649.41
2018-12-11T19:46:54.088Z,100655.42
2018-12-11T19:49:26.430Z,100649.56
2018-12-11T19:51:58.831Z,100648.97
2018-12-11T19:54:30.581Z,100645.48
2018-12-11T19:57:03.994Z,100644.18
2018-12-11T19:59:37.217Z,100652.92
2018-12-11T20:02:07.332Z,100649.53
2018-12-11T20:04:43.150Z,100660.03
2018-12-11T20:07:18.274Z,100650.66
2018-12-11T20:09:55.860Z,100648.48
2018-12-11T20:12:27.866Z,100662.09
2018-12-11T20:15:04.668Z,100662.53
2018-12-11T20:17:34.826Z,100662.05
2018-12-11T20:20:07.612Z,100676.72
2018-12-11T20:22:39.881Z,100677.56
2018-12-11T20:25:11.867Z,100676.59
2018-12-11T20:27:44.751Z,100673.50
2018-12-11T20:32:48.796Z,100673.72
2018-12-11T20:35:20.796Z,100673.72
2018-12-11T20:38:00.297Z,100679.98
2018-12-11T20:40:32.743Z,100682.08
2018-12-11T20:43:04.699Z,100681.19
2018-12-11T20:45:37.091Z,100684.70
2018-12-11T20:48:08.961Z,100689.55
2018-12-11T20:50:41.573Z,100682.01
2018-12-11T20:53:13.449Z,100683.58
2018-12-11T20:55:45.887Z,100678.42
2018-12-11T20:58:20.355Z,100681.04
2018-12-11T21:00:52.158Z,100685.67
2018-12-11T21:03:24.403Z,100676.83
2018-12-11T21:05:56.801Z,100692.52
2018-12-11T21:08:29.810Z,100700.63
2018-12-11T21:11:01.957Z,100701.00
2018-12-11T21:13:34.588Z,100699.77
2018-12-11T21:16:11.007Z,100689.13
2018-12-11T21:18:40.753Z,100691.84
2018-12-11T21:21:12.772Z,100696.97
2018-12-11T21:23:46.449Z,100697.68
2018-12-11T21:26:19.691Z,100695.14
2018-12-11T21:28:51.369Z,100702.69
2018-12-11T21:31:26.250Z,100697.20
2018-12-11T21:33:59.173Z,100698.10
2018-12-11T21:36:33.914Z,100702.31
2018-12-11T21:39:09.740Z,100695.97
2018-12-11T21:41:42.049Z,100699.58
2018-12-11T21:44:14.354Z,100704.02
2018-12-11T21:46:46.553Z,100701.29
2018-12-11T21:49:19.220Z,100705.85
2018-12-11T21:51:51.660Z,100706.71
2018-12-11T21:57:18.154Z,100705.36
2018-12-11T21:59:50.124Z,100709.53
2018-12-11T22:02:22.922Z,100711.62
2018-12-11T22:04:53.585Z,100705.88
2018-12-11T22:07:25.810Z,100707.18
2018-12-11T22:09:58.203Z,100716.84
2018-12-11T22:12:30.788Z,100716.47
2018-12-11T22:15:05.169Z,100718.53
2018-12-11T22:17:37.874Z,100721.70
2018-12-11T22:20:17.090Z,100713.59
2018-12-11T22:22:50.458Z,100722.22
2018-12-11T22:25:22.731Z,100723.05
2018-12-11T22:27:55.095Z,100722.28
2018-12-11T22:30:27.164Z,100723.57
2018-12-11T22:32:59.662Z,100728.22
2018-12-11T22:35:32.247Z,100728.36
2018-12-11T22:38:05.506Z,100735.20
2018-12-11T22:40:38.346Z,100734.61
2018-12-11T22:43:11.075Z,100738.22
2018-12-11T22:45:43.136Z,100742.59
2018-12-11T22:48:14.974Z,100738.81
2018-12-11T22:50:50.051Z,100739.53
2018-12-11T22:53:20.335Z,100743.97
2018-12-11T22:55:52.525Z,100746.89
2018-12-11T22:58:24.835Z,100744.03
2018-12-11T23:00:57.608Z,100750.05
2018-12-11T23:03:29.473Z,100755.79
2018-12-11T23:06:01.696Z,100759.06
2018-12-11T23:08:33.876Z,100754.80
2018-12-11T23:14:00.164Z,100758.64
2018-12-11T23:16:32.315Z,100753.62
2018-12-11T23:19:04.680Z,100751.39
2018-12-11T23:21:36.780Z,100760.44
2018-12-11T23:24:09.213Z,100755.31
2018-12-11T23:26:41.408Z,100764.66
2018-12-11T23:29:13.405Z,100765.08
2018-12-11T23:31:47.840Z,100763.63
2018-12-11T23:36:54.673Z,100771.05
2018-12-11T23:39:29.222Z,100777.52
2018-12-11T23:42:03.077Z,100776.28
2018-12-11T23:44:37.911Z,100781.64
2018-12-11T23:47:11.553Z,100787.80
2018-12-11T23:49:44.705Z,100783.36
2018-12-11T23:52:17.284Z,100788.38
2018-12-11T23:54:50.667Z,100788.59
2018-12-11T23:57:20.876Z,100789.11
2018-12-11T23:59:53.709Z,100792.89
